Home > Products > Valid Products > TAF

000
FTUS41 KPHI 251122
TAFPHL
TAF
KPHL 251122Z 2512/2618 25005KT P6SM FEW250
     FM251500 28009KT P6SM SKC
     FM252100 25009KT P6SM SKC
     FM260100 23005KT P6SM SKC
     FM261500 20008KT P6SM BKN200=



000
FTUS41 KPHI 251122
TAFILG
TAF
KILG 251122Z 2512/2612 31004KT P6SM SKC
     FM251500 28008KT P6SM SKC
     FM252100 24011KT P6SM SKC
     FM260100 21004KT P6SM SKC=



000
FTUS41 KPHI 251122
TAFRDG
TAF
KRDG 251122Z 2512/2612 00000KT P6SM SKC
      TEMPO 2512/2513 4SM BR
     FM251500 28009KT P6SM SKC
     FM252100 24006KT P6SM SKC
     FM260100 00000KT P6SM SKC=



000
FTUS41 KPHI 251122
TAFPNE
TAF
KPNE 251122Z 2512/2612 00000KT P6SM SKC
     FM251500 29007KT P6SM SKC
     FM252100 26010KT P6SM SKC
     FM260100 24004KT P6SM SKC=



000
FTUS41 KPHI 251122
TAFMIV
TAF
KMIV 251122Z 2512/2612 00000KT P6SM SKC
      TEMPO 2512/2513 5SM BR
     FM251400 29007KT P6SM SKC
     FM251900 27010KT P6SM SKC
     FM260000 00000KT P6SM SKC=



000
FTUS41 KPHI 251122
TAFABE
TAF
KABE 251122Z 2512/2612 00000KT P6SM SKC
      TEMPO 2512/2513 5SM BR
     FM251500 28007KT P6SM SKC
     FM252100 25005KT P6SM SKC
     FM260100 00000KT P6SM SKC=



000
FTUS41 KPHI 241720
TAFTTN
TAF
KTTN 241720Z 2418/2518 27008KT P6SM SCT080 BKN100
     FM241900 28006KT P6SM VCSH BKN080
     FM242200 VRB04KT P6SM SKC
     FM251500 30007KT P6SM FEW200=



000
FTUS41 KPHI 241720
TAFPNE
TAF
KPNE 241720Z 2418/2518 29009KT P6SM SCT050 BKN200
     FM250000 VRB04KT P6SM SKC
     FM251500 29006KT P6SM FEW200=



000
FTUS41 KPHI 241720
TAFILG
TAF
KILG 241720Z 2418/2518 27010KT P6SM FEW050 BKN200
     FM250000 VRB04KT P6SM SKC
     FM251400 28006KT P6SM FEW200=



000
FTUS41 KPHI 241720
TAFABE
TAF
KABE 241720Z 2418/2518 31009KT P6SM FEW080
     FM241900 27007KT P6SM VCSH SCT080
     FM242200 VRB03KT P6SM SKC
     FM251500 27006KT P6SM FEW200=



000
FTUS41 KPHI 241720
TAFMIV
TAF
KMIV 241720Z 2418/2518 30008KT P6SM FEW080 BKN100
     FM250000 00000KT P6SM SKC
     FM251500 29006KT P6SM FEW200=



000
FTUS41 KPHI 241720
TAFPHL
TAF
KPHL 241720Z 2418/2524 22009KT P6SM FEW050 BKN200
     FM250000 VRB04KT P6SM SKC
     FM251400 25006KT P6SM FEW200=



000
FTUS41 KPHI 241720
TAFRDG
TAF
KRDG 241720Z 2418/2518 29010KT P6SM FEW080
     FM250000 28002KT P6SM SKC
     FM251500 29006KT P6SM FEW200=



000
FTUS41 KPHI 241720
TAFACY
TAF
KACY 241720Z 2418/2518 28006KT P6SM SCT080 BKN100
     FM250000 VRB02KT P6SM SKC
     FM251500 28007KT P6SM FEW200=



000
FTUS41 KPHI 241303 AAA
TAFILG
TAF AMD
KILG 241303Z 2413/2512 33005KT P6SM SCT050 BKN200
     FM241800 30010KT P6SM FEW050 BKN200
     FM242200 29008KT P6SM SCT200
     FM250200 27004KT P6SM SKC=



000
FTUS41 KPHI 241302 AAA
TAFPNE
TAF AMD
KPNE 241302Z 2413/2512 33005KT P6SM SCT050 BKN120
     FM241800 29009KT P6SM SCT050 BKN200
     FM250000 27005KT P6SM FEW120=



000
FTUS41 KPHI 241240 AAA
TAFABE
TAF AMD
KABE 241240Z 2413/2512 00000KT P6SM SCT050 BKN200
     FM241400 32005KT P6SM BKN200
     FM241800 31009KT P6SM FEW050
     FM250000 VRB02KT P6SM SKC
     FM251000 VRB02KT 4SM BR SKC=



000
FTUS41 KPHI 241120
TAFACY
TAF
KACY 241120Z 2412/2512 33005KT P6SM -SHRA BKN050 OVC100
     FM241500 28006KT P6SM SCT040 BKN100
      TEMPO 2415/2417 -SHRA
     FM241700 29009KT P6SM BKN050 OVC100
     FM250000 25004KT P6SM SCT200
     FM250200 VRB02KT P6SM SKC
     FM250800 VRB02KT 3SM BR SKC=



000
FTUS41 KPHI 241120
TAFPNE
TAF
KPNE 241120Z 2412/2512 VRB02KT 5SM BR SCT060 BKN100
      TEMPO 2412/2413 4SM BR
     FM241400 33005KT P6SM SCT050 BKN120
     FM241800 29009KT P6SM SCT050 BKN200
     FM250000 27005KT P6SM FEW120=



000
FTUS41 KPHI 241120
TAFMIV
TAF
KMIV 241120Z 2412/2512 30004KT P6SM SCT050 BKN100
      TEMPO 2412/2413 4SM BR
     FM241600 30008KT P6SM BKN050 BKN120
     FM242300 28004KT P6SM SCT200
     FM250100 00000KT P6SM SKC
     FM250800 00000KT 3SM BR SKC=



000
FTUS41 KPHI 241120
TAFILG
TAF
KILG 241120Z 2412/2512 32005KT 5SM BR SCT120
      TEMPO 2412/2413 3SM BR
     FM241400 33005KT P6SM SCT050 BKN200
     FM241800 30010KT P6SM FEW050 BKN200
     FM242200 29008KT P6SM SCT200
     FM250200 27004KT P6SM SKC=



000
FTUS41 KPHI 241120
TAFTTN
TAF
KTTN 241120Z 2412/2512 32003KT 6SM BR BKN080 BKN120
      TEMPO 2412/2413 4SM BR
     FM241400 33005KT P6SM BKN080
     FM241800 32008KT P6SM BKN050 BKN120
     FM242200 34004KT P6SM SCT120
     FM250100 VRB02KT P6SM SKC=



000
FTUS41 KPHI 241120
TAFRDG
TAF
KRDG 241120Z 2412/2512 VRB03KT P6SM SCT100
     FM241400 32005KT P6SM BKN200
     FM241800 29010KT P6SM SCT050
     FM250000 28002KT P6SM SKC
     FM250900 VRB03KT 4SM BR SKC=



000
FTUS41 KPHI 241120
TAFABE
TAF
KABE 241120Z 2412/2512 00000KT P6SM SCT050 BKN200
      TEMPO 2412/2413 4SM BR
     FM241400 32005KT P6SM BKN200
     FM241800 31009KT P6SM FEW050
     FM250000 VRB02KT P6SM SKC
     FM251000 VRB02KT 4SM BR SKC=



000
FTUS41 KPHI 241120
TAFPHL
TAF
KPHL 241120Z 2412/2518 VRB03KT P6SM SCT060 BKN100
     FM241400 33005KT P6SM SCT050 BKN120
     FM241800 29009KT P6SM SCT050 BKN200
     FM250000 27005KT P6SM FEW120
     FM251400 27008KT P6SM FEW060=



000
FTUS41 KPHI 240950 AAA
TAFRDG
TAF AMD
KRDG 240950Z 2410/2506 VRB03KT P6SM BKN100
      TEMPO 2410/2412 3SM BR
     FM241200 32005KT P6SM SCT080 BKN120
     FM241800 29010KT P6SM BKN050 BKN200
     FM242300 27002KT P6SM SKC=



000
FTUS41 KPHI 240935 AAA
TAFMIV
TAF AMD
KMIV 240935Z 2410/2506 VRB02KT P6SM -SHRA SCT060 BKN120
     FM241200 31004KT P6SM SCT050 BKN100
     FM241600 30008KT P6SM BKN050 OVC150
     FM242300 27004KT P6SM SCT120
     FM250200 00000KT P6SM SKC=



000
FTUS41 KPHI 240934 AAA
TAFPHL
TAF AMD
KPHL 240934Z 2410/2512 VRB03KT P6SM SCT050 BKN120
     FM241200 32005KT P6SM SCT050 BKN120
     FM241800 30009KT P6SM BKN050 OVC120
     FM250000 29006KT P6SM SCT120
     FM250400 27004KT P6SM SKC=



000
FTUS41 KPHI 240715 AAA
TAFTTN
TAF AMD
KTTN 240715Z 2407/2506 VRB03KT 6SM -SHRA BR SCT040 BKN060
      TEMPO 2408/2411 4SM BR SCT020
     FM241200 34005KT P6SM SCT050 BKN150
     FM241800 32007KT P6SM BKN050 OVC120
     FM242200 34004KT P6SM SCT120=



000
FTUS41 KPHI 232356
TAFPNE
TAF
KPNE 232356Z 2400/2424 24004KT P6SM SCT050 BKN120
     FM240100 VRB03KT 6SM -SHRA SCT040 OVC080
     FM240230 VRB03KT P6SM BKN090
     FM240600 29003KT 4SM BR FEW020 BKN090
     FM241200 33005KT P6SM SCT050 BKN150
     FM241800 28007KT P6SM BKN050 OVC150=



000
FTUS41 KPHI 232356
TAFTTN
TAF
KTTN 232356Z 2400/2424 VRB05KT P6SM -SHRA SCT060 OVC100
     FM240200 VRB04KT 6SM BR OVC090
     FM240500 VRB03KT 4SM BR BKN090
      TEMPO 2407/2409 2SM BR SCT020
     FM241200 33005KT P6SM SCT050 BKN150
     FM241800 28007KT P6SM BKN050 OVC150=



000
FTUS41 KPHI 232356
TAFACY
TAF
KACY 232356Z 2400/2424 11006KT P6SM FEW070 BKN150
     FM240600 33003KT P6SM VCSH SCT025 OVC050
     FM240900 VRB03KT 5SM -SHRA BKN015 BKN060
     FM241400 31007KT P6SM BKN050
     FM241800 26009KT P6SM BKN050 OVC150=



000
FTUS41 KPHI 232356
TAFILG
TAF
KILG 232356Z 2400/2424 20007KT P6SM FEW030 SCT070 OVC120
     FM240200 20005KT 6SM -SHRA SCT025 OVC070
     FM240500 VRB04KT 6SM BR BKN090
     FM240600 29003KT 4SM BR BKN090
      TEMPO 2407/2409 2SM BR FEW010 BKN090
     FM241200 32007KT P6SM SCT060 BKN150
     FM241800 29011KT P6SM BKN060 OVC150=



000
FTUS41 KPHI 232356
TAFABE
TAF
KABE 232356Z 2400/2424 14004KT P6SM SCT050 BKN090
     FM240400 VRB03KT P6SM BKN120
     FM240700 VRB02KT 5SM BR BKN080 OVC120
     FM241200 32006KT P6SM SCT070 BKN150
     FM241800 28009KT P6SM BKN050 BKN150=



000
FTUS41 KPHI 232356
TAFPHL
TAF
KPHL 232356Z 2400/2506 17006KT P6SM FEW025 SCT050 BKN120
     FM240100 20005KT 6SM -SHRA SCT025 OVC070
     FM240300 VRB04KT P6SM BKN090
      TEMPO 2407/2409 5SM BR FEW020 BKN090
     FM241200 32006KT P6SM SCT060 BKN150
     FM241800 29010KT P6SM BKN060 OVC150
     FM250000 26006KT P6SM SCT070 BKN250=



000
FTUS41 KPHI 232356
TAFRDG
TAF
KRDG 232356Z 2400/2424 VRB05KT P6SM FEW060 BKN150
     FM240400 VRB03KT P6SM BKN120
     FM240700 VRB02KT 4SM BR BKN090
     FM241200 31006KT P6SM SCT070 BKN150
     FM241800 28010KT P6SM BKN050 BKN150=



000
FTUS41 KPHI 232356
TAFMIV
TAF
KMIV 232356Z 2400/2424 20004KT P6SM SCT060 OVC120
     FM240800 00000KT 4SM BR FEW015 BKN090
     FM241200 31005KT P6SM SCT050 BKN150
     FM241800 28008KT P6SM BKN050 OVC150=



000
FTUS41 KPHI 232307 AAB
TAFILG
TAF AMD
KILG 232307Z 2323/2418 06012G20KT 2SM -TSRA BKN025 OVC045CB
     FM232315 13005KT 5SM -SHRA VCTS BKN025 OVC050CB
     FM232345 17005KT P6SM FEW025 SCT050 BKN120
     FM240300 28003KT P6SM BKN080
     FM240900 VRB03KT 6SM BR BKN060
     FM241300 29008KT P6SM BKN050=



000
FTUS41 KPHI 232130 AAB
TAFPNE
TAF AMD
KPNE 232130Z 2322/2418 35015G30KT 1 1/2SM TSRA SCT025 OVC050CB
     FM232205 10006KT 5SM -SHRA BKN050 OVC100
     FM232230 VRB05KT P6SM SCT050 BKN100
     FM240200 VRB03KT 6SM -SHRA BKN080
     FM240600 VRB03KT 4SM BR BKN060
     FM241300 29008KT P6SM BKN050=



000
FTUS41 KPHI 232105 AAB
TAFPHL
TAF AMD
KPHL 232105Z 2321/2424 11009KT P6SM SCT060 BKN150
     FM232130 02008G17KT P6SM -SHRA VCTS BKN060CB OVC120
     FM232230 15005KT P6SM FEW060 BKN100
     FM240000 12006KT 6SM -SHRA BKN050
     FM240200 VRB03KT P6SM BKN080
     FM240900 VRB03KT 6SM BR BKN060
     FM241200 29008KT P6SM BKN050=



000
FTUS41 KPHI 231023 AAB
TAFTTN
TAF AMD
KTTN 231023Z 2310/2406 VRB03KT P6SM BKN100
     FM231400 03006KT P6SM SCT080 BKN150
     FM231800 09006KT P6SM -SHRA BKN050
      TEMPO 2318/2322 3SM SHRA OVC035
     FM232200 17003KT P6SM -SHRA BKN050
     FM240300 VRB03KT P6SM BKN080=



000
FTUS41 KPHI 230813 AAA
TAFRDG
TAF AMD
KRDG 230813Z 2308/2406 00000KT 3SM BR FEW004 SCT050
      TEMPO 2308/2311 3/4SM BR VV002
     FM231200 02005KT P6SM SCT080
     FM231600 03005KT P6SM -SHRA BKN050
      TEMPO 2316/2320 3SM SHRA OVC035
     FM232000 03003KT P6SM -SHRA BKN050
     FM240400 VRB03KT P6SM BKN080=



000
FTUS41 KPHI 230529
TAFPHL
TAF
KPHL 230529Z 2306/2412 VRB03KT P6SM FEW060 BKN150
     FM230900 01003KT 5SM BR BKN100
     FM231200 03006KT P6SM SCT050 BKN100
     FM231800 06008KT P6SM -SHRA BKN050
      TEMPO 2319/2323 3SM SHRA OVC035
     FM232300 12006KT P6SM -SHRA BKN050
     FM240300 VRB03KT P6SM BKN080=



000
FTUS41 KPHI 230524
TAFACY
TAF
KACY 230524Z 2306/2406 01003KT P6SM BKN070
      TEMPO 2308/2312 5SM BR
     FM231200 02008KT P6SM SCT050 BKN100
     FM231900 06010KT P6SM -SHRA BKN050
      TEMPO 2320/2324 5SM -SHRA OVC035
     FM240000 06006KT P6SM -SHRA BKN050
     FM240400 33003KT P6SM BKN050=



000
FTUS41 KPHI 230524
TAFTTN
TAF
KTTN 230524Z 2306/2406 VRB03KT 5SM BR SCT070
      TEMPO 2306/2310 2SM BR FEW004
     FM231000 VRB03KT 2SM BR FEW006 SCT100
     FM231200 03006KT P6SM SCT080
     FM231800 09006KT P6SM -SHRA BKN050
      TEMPO 2318/2322 3SM SHRA OVC035
     FM232200 17003KT P6SM -SHRA BKN050
     FM240300 VRB03KT P6SM BKN080=



000
FTUS41 KPHI 230524
TAFILG
TAF
KILG 230524Z 2306/2406 VRB03KT P6SM SCT050 BKN100
     FM230800 VRB03KT 4SM BR SCT009 BKN120
     FM231200 03006KT P6SM SCT050 BKN100
     FM231800 06008KT P6SM -SHRA BKN050
      TEMPO 2319/2323 3SM SHRA OVC035
     FM232300 14006KT P6SM -SHRA BKN050
     FM240300 28003KT P6SM BKN080=



000
FTUS41 KPHI 230524
TAFRDG
TAF
KRDG 230524Z 2306/2406 00000KT 3SM BR FEW004 SCT050
      TEMPO 2306/2310 3/4SM BR VV002
     FM231000 VRB03KT 3SM BR FEW004 SCT050
     FM231200 02005KT P6SM SCT080
     FM231600 03005KT P6SM -SHRA BKN050
      TEMPO 2316/2320 3SM SHRA OVC035
     FM232000 03003KT P6SM -SHRA BKN050
     FM240400 VRB03KT P6SM BKN080=



000
FTUS41 KPHI 230524
TAFMIV
TAF
KMIV 230524Z 2306/2406 VRB03KT P6SM BKN070
      TEMPO 2308/2312 4SM BR
     FM231200 02006KT P6SM SCT050 BKN100
     FM231900 05008KT P6SM -SHRA BKN050
      TEMPO 2320/2324 5SM -SHRA OVC035
     FM240000 08006KT P6SM -SHRA BKN050
     FM240400 VRB03KT P6SM BKN050=



000
FTUS41 KPHI 230524
TAFABE
TAF
KABE 230524Z 2306/2406 VRB03KT P6SM SCT070
      TEMPO 2308/2312 4SM BR
     FM231200 02005KT P6SM SCT080
     FM231600 05005KT P6SM -SHRA BKN050
      TEMPO 2316/2320 3SM SHRA OVC035
     FM232000 05005KT P6SM -SHRA BKN050
     FM240400 VRB03KT P6SM BKN080=



000
FTUS41 KPHI 230524
TAFPNE
TAF
KPNE 230524Z 2306/2406 VRB03KT 4SM BR FEW060 SCT150
      TEMPO 2306/2310 1SM BR
     FM231000 VRB03KT 2SM BR FEW009 BKN100
     FM231200 03006KT P6SM SCT050 BKN100
     FM231800 06008KT P6SM -SHRA BKN050
      TEMPO 2319/2323 3SM SHRA OVC035
     FM232300 10006KT P6SM -SHRA BKN050
     FM240300 VRB03KT P6SM BKN080=



000
FTUS41 KPHI 230421 AAA
TAFRDG
TAF AMD
KRDG 230421Z 2304/2324 VRB03KT 6SM BR SCT060
      TEMPO 2304/2307 2SM BR
     FM230700 00000KT 4SM BR SCT060 BKN150
     FM230900 VRB02KT 2SM BR SCT009 BKN100
     FM231300 36005KT P6SM SCT050 BKN100
     FM231700 33004KT P6SM -SHRA BKN050 OVC100=



000
FTUS41 KPHI 221921 AAA
TAFACY
TAF AMD
KACY 221921Z 2219/2318 36010KT 3SM BR OVC025
      TEMPO 2219/2222 2SM -SHRA BR BKN006
     FM230200 VRB02KT 6SM BR OVC050
     FM230900 02004KT 6SM BR SCT009 OVC070=



000
FTUS41 KPHI 221720
TAFABE
TAF
KABE 221720Z 2218/2318 01005KT P6SM OVC050
     FM230300 VRB02KT P6SM OVC100
     FM230900 VRB02KT 6SM BR SCT009 BKN080
     FM231300 03006KT P6SM BKN050=



000
FTUS41 KPHI 221720
TAFPNE
TAF
KPNE 221720Z 2218/2318 05006KT P6SM BKN050
     FM230300 03003KT P6SM OVC100
     FM230900 01003KT 6SM BR SCT009 BKN080
     FM231300 04007KT P6SM BKN050=



000
FTUS41 KPHI 221720
TAFRDG
TAF
KRDG 221720Z 2218/2318 35006KT P6SM OVC060
     FM230300 VRB03KT 6SM BR OVC100
     FM230900 VRB02KT 3SM BR OVC009
     FM231300 36005KT P6SM BKN050=



000
FTUS41 KPHI 221720
TAFTTN
TAF
KTTN 221720Z 2218/2318 03005KT P6SM BKN050
     FM230300 02003KT P6SM OVC100
     FM230900 01002KT 6SM BR SCT009 BKN080
     FM231300 05007KT P6SM BKN050=



000
FTUS41 KPHI 221720
TAFACY
TAF
KACY 221720Z 2218/2318 36010KT 2SM -SHRA BR BKN006 OVC015
      TEMPO 2218/2220 5SM BR OVC025
     FM222000 03003KT P6SM OVC035
     FM230200 VRB02KT 6SM BR OVC070
     FM230900 02004KT 6SM BR SCT009 OVC070=



000
FTUS41 KPHI 221720
TAFMIV
TAF
KMIV 221720Z 2218/2318 03004KT P6SM SCT020 OVC035
      TEMPO 2218/2220 OVC020
     FM230200 VRB02KT 6SM BR OVC070
     FM230900 01002KT 6SM BR SCT009 OVC070
     FM231300 03008KT P6SM BKN050=



000
FTUS41 KPHI 221720
TAFPHL
TAF
KPHL 221720Z 2218/2324 02009KT P6SM BKN050
     FM230300 05005KT P6SM BKN080
     FM230900 03004KT 6SM BR SCT009 BKN080
     FM231300 04008KT P6SM BKN050
     FM231800 04007KT P6SM -SHRA BKN050=



000
FTUS41 KPHI 221720
TAFILG
TAF
KILG 221720Z 2218/2318 35006KT P6SM BKN050
     FM230300 02003KT P6SM BKN070
     FM230900 34003KT 6SM BR SCT009 BKN070
     FM231300 02007KT P6SM BKN050=



000
FTUS41 KPHI 221404 AAA
TAFACY
TAF AMD
KACY 221404Z 2214/2312 36010KT P6SM SCT009 OVC015
     FM221800 08006KT P6SM SCT020 OVC035
     FM222100 VRB03KT P6SM BKN035
     FM230200 VRB03KT P6SM OVC070=



000
FTUS41 KPHI 221403 AAA
TAFMIV
TAF AMD
KMIV 221403Z 2214/2312 01006KT P6SM -SHRA SCT020 OVC035
     FM221900 34004KT P6SM SCT020 OVC035
     FM222200 VRB02KT P6SM BKN035
     FM230200 VRB02KT 6SM BR OVC070=



000
FTUS41 KPHI 221402 AAA
TAFILG
TAF AMD
KILG 221402Z 2214/2312 35006KT P6SM -SHRA OVC035
     FM221800 33006KT P6SM VCSH SCT025 BKN050
     FM222100 26003KT P6SM VCSH BKN040
     FM230300 VRB03KT P6SM BKN070=



000
FTUS41 KPHI 221401 AAA
TAFABE
TAF AMD
KABE 221401Z 2214/2312 01005KT P6SM -SHRA SCT025 OVC050
     FM221800 VRB03KT P6SM VCSH BKN040
     FM230300 VRB03KT P6SM OVC080=



000
FTUS41 KPHI 221400 AAA
TAFRDG
TAF AMD
KRDG 221400Z 2214/2312 VRB03KT P6SM -SHRA SCT025 BKN050
     FM221800 VRB03KT P6SM VCSH BKN040
     FM230300 VRB03KT 6SM BR OVC080=



    US Dept of Commerce
    National Oceanic and Atmospheric Administration
    National Weather Service
    1325 East West Highway
    Silver Spring, MD 20910
    Page Author: NWS Internet Services Team
Disclaimer
Information Quality
Credits
Glossary
Privacy Policy
Freedom of Information Act (FOIA)
About Us
Career Opportunities